sensor_id;sensor_type;location;lat;lon;timestamp;pressure;altitude;pressure_sealevel;temperature;humidity
61870;BME280;47810;42.264;23.826;2023-05-08T00:00:49;94035.53;;;12.53;70.62
61870;BME280;47810;42.264;23.826;2023-05-08T00:03:14;94028.66;;;12.38;69.93
61870;BME280;47810;42.264;23.826;2023-05-08T00:05:40;94029.63;;;12.37;71.62
61870;BME280;47810;42.264;23.826;2023-05-08T00:08:06;94031.63;;;12.46;71.51
61870;BME280;47810;42.264;23.826;2023-05-08T00:10:31;94025.75;;;12.66;70.38
61870;BME280;47810;42.264;23.826;2023-05-08T00:12:57;94028.75;;;12.62;70.77
61870;BME280;47810;42.264;23.826;2023-05-08T00:15:23;94033.59;;;12.55;71.17
61870;BME280;47810;42.264;23.826;2023-05-08T00:17:48;94029.41;;;12.52;71.37
61870;BME280;47810;42.264;23.826;2023-05-08T00:20:14;94031.63;;;12.46;71.89
61870;BME280;47810;42.264;23.826;2023-05-08T00:22:40;94034.69;;;12.40;71.00
61870;BME280;47810;42.264;23.826;2023-05-08T00:25:05;94028.13;;;12.32;70.78
61870;BME280;47810;42.264;23.826;2023-05-08T00:27:31;94021.13;;;12.31;70.66
61870;BME280;47810;42.264;23.826;2023-05-08T00:29:57;94017.53;;;12.20;72.35
61870;BME280;47810;42.264;23.826;2023-05-08T00:32:23;94029.19;;;12.17;72.43
61870;BME280;47810;42.264;23.826;2023-05-08T00:34:48;94023.69;;;12.20;72.50
61870;BME280;47810;42.264;23.826;2023-05-08T00:37:14;94029.19;;;12.17;72.12
61870;BME280;47810;42.264;23.826;2023-05-08T00:39:40;94027.06;;;12.22;73.06
61870;BME280;47810;42.264;23.826;2023-05-08T00:42:06;94024.31;;;12.49;70.74
61870;BME280;47810;42.264;23.826;2023-05-08T00:44:31;94021.34;;;12.54;70.01
61870;BME280;47810;42.264;23.826;2023-05-08T00:46:57;94032.13;;;12.51;70.12
61870;BME280;47810;42.264;23.826;2023-05-08T00:49:22;94033.47;;;11.80;71.73
61870;BME280;47810;42.264;23.826;2023-05-08T00:51:50;94033.41;;;11.54;73.43
61870;BME280;47810;42.264;23.826;2023-05-08T00:54:16;94038.72;;;11.67;72.90
61870;BME280;47810;42.264;23.826;2023-05-08T00:56:42;94034.69;;;11.61;73.51
61870;BME280;47810;42.264;23.826;2023-05-08T00:59:10;94035.19;;;11.54;73.62
61870;BME280;47810;42.264;23.826;2023-05-08T01:01:36;94028.22;;;11.53;73.60
61870;BME280;47810;42.264;23.826;2023-05-08T01:04:02;94041.13;;;11.57;73.81
61870;BME280;47810;42.264;23.826;2023-05-08T01:06:28;94038.59;;;11.56;75.14
61870;BME280;47810;42.264;23.826;2023-05-08T01:08:53;94030.91;;;11.65;74.66
61870;BME280;47810;42.264;23.826;2023-05-08T01:11:40;94029.53;;;11.73;74.02
61870;BME280;47810;42.264;23.826;2023-05-08T01:14:23;94031.44;;;11.83;72.76
61870;BME280;47810;42.264;23.826;2023-05-08T01:21:54;94038.00;;;11.78;72.72
61870;BME280;47810;42.264;23.826;2023-05-08T01:27:13;94034.56;;;11.50;73.30
61870;BME280;47810;42.264;23.826;2023-05-08T01:29:54;94038.38;;;11.46;72.97
61870;BME280;47810;42.264;23.826;2023-05-08T01:32:28;94029.22;;;11.37;73.23
61870;BME280;47810;42.264;23.826;2023-05-08T01:37:43;94037.44;;;11.06;74.13
61870;BME280;47810;42.264;23.826;2023-05-08T01:40:16;94041.00;;;10.78;75.13
61870;BME280;47810;42.264;23.826;2023-05-08T01:42:48;94050.38;;;10.55;75.82
61870;BME280;47810;42.264;23.826;2023-05-08T01:45:36;94043.09;;;10.58;75.66
61870;BME280;47810;42.264;23.826;2023-05-08T01:48:03;94042.22;;;10.72;75.08
61870;BME280;47810;42.264;23.826;2023-05-08T01:50:34;94041.84;;;10.78;75.13
61870;BME280;47810;42.264;23.826;2023-05-08T01:53:06;94046.00;;;10.68;75.26
61870;BME280;47810;42.264;23.826;2023-05-08T01:55:34;94045.47;;;10.48;75.64
61870;BME280;47810;42.264;23.826;2023-05-08T01:58:00;94044.03;;;10.43;75.96
61870;BME280;47810;42.264;23.826;2023-05-08T02:00:28;94033.84;;;10.22;76.75
61870;BME280;47810;42.264;23.826;2023-05-08T02:02:54;94039.81;;;10.26;76.65
61870;BME280;47810;42.264;23.826;2023-05-08T02:05:20;94033.03;;;10.36;76.32
61870;BME280;47810;42.264;23.826;2023-05-08T02:07:46;94031.63;;;10.31;76.69
61870;BME280;47810;42.264;23.826;2023-05-08T02:10:13;94039.06;;;10.38;76.27
61870;BME280;47810;42.264;23.826;2023-05-08T02:12:39;94041.59;;;10.11;77.11
61870;BME280;47810;42.264;23.826;2023-05-08T02:15:05;94030.53;;;10.04;77.77
61870;BME280;47810;42.264;23.826;2023-05-08T02:17:33;94031.28;;;9.92;78.30
61870;BME280;47810;42.264;23.826;2023-05-08T02:20:01;94030.16;;;10.11;77.38
61870;BME280;47810;42.264;23.826;2023-05-08T02:22:28;94041.13;;;9.74;78.91
61870;BME280;47810;42.264;23.826;2023-05-08T02:25:02;94035.56;;;9.65;78.99
61870;BME280;47810;42.264;23.826;2023-05-08T02:27:28;94038.19;;;9.65;79.54
61870;BME280;47810;42.264;23.826;2023-05-08T02:29:55;94030.03;;;9.98;78.33
61870;BME280;47810;42.264;23.826;2023-05-08T02:32:21;94030.13;;;9.82;78.76
61870;BME280;47810;42.264;23.826;2023-05-08T02:34:49;94037.47;;;9.77;79.00
61870;BME280;47810;42.264;23.826;2023-05-08T02:37:17;94035.50;;;9.80;79.25
61870;BME280;47810;42.264;23.826;2023-05-08T02:39:44;94031.00;;;9.83;79.08
61870;BME280;47810;42.264;23.826;2023-05-08T02:42:11;94034.28;;;10.00;78.35
61870;BME280;47810;42.264;23.826;2023-05-08T02:44:37;94033.56;;;10.13;78.96
61870;BME280;47810;42.264;23.826;2023-05-08T02:47:14;94035.81;;;10.19;78.94
61870;BME280;47810;42.264;23.826;2023-05-08T02:49:47;94035.81;;;10.19;77.98
61870;BME280;47810;42.264;23.826;2023-05-08T02:57:20;94037.84;;;10.44;78.36
61870;BME280;47810;42.264;23.826;2023-05-08T02:59:52;94043.84;;;10.46;77.85
61870;BME280;47810;42.264;23.826;2023-05-08T03:02:22;94036.59;;;10.49;77.17
61870;BME280;47810;42.264;23.826;2023-05-08T03:04:52;94047.66;;;10.56;77.85
61870;BME280;47810;42.264;23.826;2023-05-08T03:07:20;94049.03;;;10.62;77.42
61870;BME280;47810;42.264;23.826;2023-05-08T03:09:47;94040.91;;;10.65;77.27
61870;BME280;47810;42.264;23.826;2023-05-08T03:12:16;94044.91;;;10.58;77.20
61870;BME280;47810;42.264;23.826;2023-05-08T03:14:47;94043.22;;;10.57;77.29
61870;BME280;47810;42.264;23.826;2023-05-08T03:17:17;94049.69;;;10.65;77.09
61870;BME280;47810;42.264;23.826;2023-05-08T03:19:44;94051.47;;;10.65;77.01
61870;BME280;47810;42.264;23.826;2023-05-08T03:22:11;94049.50;;;10.68;76.52
61870;BME280;47810;42.264;23.826;2023-05-08T03:24:38;94052.91;;;10.70;77.05
61870;BME280;47810;42.264;23.826;2023-05-08T03:27:05;94050.16;;;10.72;77.08
61870;BME280;47810;42.264;23.826;2023-05-08T03:29:32;94054.31;;;10.76;76.77
61870;BME280;47810;42.264;23.826;2023-05-08T03:31:57;94049.03;;;10.76;76.42
61870;BME280;47810;42.264;23.826;2023-05-08T03:34:24;94056.19;;;10.74;76.86
61870;BME280;47810;42.264;23.826;2023-05-08T03:36:50;94057.69;;;10.78;76.57
61870;BME280;47810;42.264;23.826;2023-05-08T03:39:16;94061.28;;;10.77;76.59
61870;BME280;47810;42.264;23.826;2023-05-08T03:41:42;94065.25;;;10.70;76.71
61870;BME280;47810;42.264;23.826;2023-05-08T03:44:07;94067.69;;;10.59;75.96
61870;BME280;47810;42.264;23.826;2023-05-08T03:46:33;94063.00;;;10.64;75.84
61870;BME280;47810;42.264;23.826;2023-05-08T03:49:01;94060.19;;;10.38;76.87
61870;BME280;47810;42.264;23.826;2023-05-08T03:51:28;94059.59;;;10.33;77.86
61870;BME280;47810;42.264;23.826;2023-05-08T03:53:53;94066.41;;;10.52;78.32
61870;BME280;47810;42.264;23.826;2023-05-08T03:56:19;94066.41;;;10.52;78.31
61870;BME280;47810;42.264;23.826;2023-05-08T03:59:32;94062.53;;;10.57;78.02
61870;BME280;47810;42.264;23.826;2023-05-08T04:01:33;94072.41;;;10.68;78.08
61870;BME280;47810;42.264;23.826;2023-05-08T04:04:03;94065.81;;;10.75;78.24
61870;BME280;47810;42.264;23.826;2023-05-08T04:06:32;94066.38;;;10.80;77.99
61870;BME280;47810;42.264;23.826;2023-05-08T04:11:47;94065.81;;;10.89;78.33
61870;BME280;47810;42.264;23.826;2023-05-08T04:14:18;94069.94;;;10.93;77.58
61870;BME280;47810;42.264;23.826;2023-05-08T04:16:47;94078.03;;;11.05;76.58
61870;BME280;47810;42.264;23.826;2023-05-08T04:19:18;94074.94;;;10.98;76.56
61870;BME280;47810;42.264;23.826;2023-05-08T04:21:45;94073.03;;;11.00;76.87
61870;BME280;47810;42.264;23.826;2023-05-08T04:24:12;94072.19;;;11.00;75.98
61870;BME280;47810;42.264;23.826;2023-05-08T04:26:39;94071.59;;;11.09;76.17
61870;BME280;47810;42.264;23.826;2023-05-08T04:29:04;94076.38;;;11.16;76.09
61870;BME280;47810;42.264;23.826;2023-05-08T04:31:31;94079.84;;;11.31;75.45
61870;BME280;47810;42.264;23.826;2023-05-08T04:33:58;94072.13;;;11.28;75.96
61870;BME280;47810;42.264;23.826;2023-05-08T04:36:23;94074.19;;;11.23;76.32
61870;BME280;47810;42.264;23.826;2023-05-08T04:38:53;94076.16;;;11.34;76.06
61870;BME280;47810;42.264;23.826;2023-05-08T04:41:19;94068.38;;;11.45;75.74
61870;BME280;47810;42.264;23.826;2023-05-08T04:43:45;94078.91;;;11.32;75.86
61870;BME280;47810;42.264;23.826;2023-05-08T04:46:11;94081.47;;;11.34;75.77
61870;BME280;47810;42.264;23.826;2023-05-08T04:48:37;94080.63;;;11.33;76.47
61870;BME280;47810;42.264;23.826;2023-05-08T04:51:02;94077.00;;;11.34;76.70
61870;BME280;47810;42.264;23.826;2023-05-08T04:53:28;94077.78;;;11.36;77.01
61870;BME280;47810;42.264;23.826;2023-05-08T04:55:54;94072.63;;;11.48;76.34
61870;BME280;47810;42.264;23.826;2023-05-08T04:58:21;94068.34;;;11.59;75.25
61870;BME280;47810;42.264;23.826;2023-05-08T05:00:47;94070.53;;;11.53;76.42
61870;BME280;47810;42.264;23.826;2023-05-08T05:03:13;94056.19;;;11.42;75.95
61870;BME280;47810;42.264;23.826;2023-05-08T05:05:39;94055.78;;;11.49;76.26
61870;BME280;47810;42.264;23.826;2023-05-08T05:08:05;94050.50;;;11.49;76.94
61870;BME280;47810;42.264;23.826;2023-05-08T05:10:30;94054.00;;;11.49;76.28
61870;BME280;47810;42.264;23.826;2023-05-08T05:13:01;94051.88;;;11.41;75.84
61870;BME280;47810;42.264;23.826;2023-05-08T05:15:27;94051.94;;;11.67;75.01
61870;BME280;47810;42.264;23.826;2023-05-08T05:17:52;94063.72;;;11.76;74.34
61870;BME280;47810;42.264;23.826;2023-05-08T05:20:18;94058.69;;;11.85;73.90
61870;BME280;47810;42.264;23.826;2023-05-08T05:22:43;94057.78;;;12.12;73.19
61870;BME280;47810;42.264;23.826;2023-05-08T05:25:09;94054.25;;;11.99;74.02
61870;BME280;47810;42.264;23.826;2023-05-08T05:27:35;94055.44;;;11.95;74.44
61870;BME280;47810;42.264;23.826;2023-05-08T05:30:04;94048.22;;;12.09;74.18
61870;BME280;47810;42.264;23.826;2023-05-08T05:32:29;94057.16;;;12.21;73.81
61870;BME280;47810;42.264;23.826;2023-05-08T05:34:55;94055.88;;;12.40;73.39
61870;BME280;47810;42.264;23.826;2023-05-08T05:37:21;94055.47;;;12.46;72.20
61870;BME280;47810;42.264;23.826;2023-05-08T05:39:47;94053.31;;;12.25;70.51
61870;BME280;47810;42.264;23.826;2023-05-08T05:42:13;94049.28;;;12.32;71.47
61870;BME280;47810;42.264;23.826;2023-05-08T05:44:39;94044.19;;;12.55;71.13
61870;BME280;47810;42.264;23.826;2023-05-08T05:47:04;94045.97;;;12.80;69.49
61870;BME280;47810;42.264;23.826;2023-05-08T05:49:30;94037.41;;;12.76;70.25
61870;BME280;47810;42.264;23.826;2023-05-08T05:51:56;94040.59;;;12.81;69.94
61870;BME280;47810;42.264;23.826;2023-05-08T05:54:21;94039.47;;;12.97;69.99
61870;BME280;47810;42.264;23.826;2023-05-08T05:56:48;94033.78;;;12.77;69.22
61870;BME280;47810;42.264;23.826;2023-05-08T05:59:14;94035.66;;;13.01;69.95
61870;BME280;47810;42.264;23.826;2023-05-08T06:01:39;94029.56;;;13.12;68.87
61870;BME280;47810;42.264;23.826;2023-05-08T06:04:05;94029.91;;;13.07;69.09
61870;BME280;47810;42.264;23.826;2023-05-08T06:06:33;94025.50;;;12.95;68.93
61870;BME280;47810;42.264;23.826;2023-05-08T06:08:58;94026.88;;;13.00;68.84
61870;BME280;47810;42.264;23.826;2023-05-08T06:11:24;94021.53;;;12.51;69.30
61870;BME280;47810;42.264;23.826;2023-05-08T06:13:49;94018.63;;;12.79;68.74
61870;BME280;47810;42.264;23.826;2023-05-08T06:16:15;94003.59;;;13.17;67.48
61870;BME280;47810;42.264;23.826;2023-05-08T06:18:40;94014.81;;;12.83;68.92
61870;BME280;47810;42.264;23.826;2023-05-08T06:21:06;94008.94;;;13.04;69.81
61870;BME280;47810;42.264;23.826;2023-05-08T06:23:32;94009.28;;;13.23;68.78
61870;BME280;47810;42.264;23.826;2023-05-08T06:25:57;94006.25;;;13.41;68.87
61870;BME280;47810;42.264;23.826;2023-05-08T06:28:23;94006.31;;;13.52;68.49
61870;BME280;47810;42.264;23.826;2023-05-08T06:30:50;94006.34;;;13.63;68.97
61870;BME280;47810;42.264;23.826;2023-05-08T06:33:16;94007.72;;;13.80;67.46
61870;BME280;47810;42.264;23.826;2023-05-08T06:35:44;94011.78;;;13.97;66.64
61870;BME280;47810;42.264;23.826;2023-05-08T06:38:10;94005.50;;;13.98;66.38
61870;BME280;47810;42.264;23.826;2023-05-08T06:40:36;94012.72;;;13.96;67.05
61870;BME280;47810;42.264;23.826;2023-05-08T06:43:06;94007.66;;;13.93;66.77
61870;BME280;47810;42.264;23.826;2023-05-08T06:45:31;94017.69;;;14.01;67.09
61870;BME280;47810;42.264;23.826;2023-05-08T06:47:57;94007.16;;;13.88;67.85
61870;BME280;47810;42.264;23.826;2023-05-08T06:50:22;94012.78;;;14.18;65.36
61870;BME280;47810;42.264;23.826;2023-05-08T06:52:48;94013.97;;;14.03;66.74
61870;BME280;47810;42.264;23.826;2023-05-08T06:55:13;94015.44;;;14.18;67.12
61870;BME280;47810;42.264;23.826;2023-05-08T06:57:39;94006.00;;;14.14;66.20
61870;BME280;47810;42.264;23.826;2023-05-08T07:00:05;94008.47;;;14.40;66.69
61870;BME280;47810;42.264;23.826;2023-05-08T07:02:30;94015.28;;;14.78;66.83
61870;BME280;47810;42.264;23.826;2023-05-08T07:04:56;94017.44;;;14.73;64.71
61870;BME280;47810;42.264;23.826;2023-05-08T07:07:21;94012.13;;;14.73;64.65
61870;BME280;47810;42.264;23.826;2023-05-08T07:09:47;94008.38;;;15.09;64.15
61870;BME280;47810;42.264;23.826;2023-05-08T07:12:12;94004.81;;;15.20;63.62
61870;BME280;47810;42.264;23.826;2023-05-08T07:14:41;94009.56;;;15.05;63.33
61870;BME280;47810;42.264;23.826;2023-05-08T07:17:06;94004.84;;;15.08;62.52
61870;BME280;47810;42.264;23.826;2023-05-08T07:19:35;93999.34;;;15.32;61.97
61870;BME280;47810;42.264;23.826;2023-05-08T07:22:00;94003.59;;;15.35;62.50
61870;BME280;47810;42.264;23.826;2023-05-08T07:24:26;94002.94;;;15.54;63.58
61870;BME280;47810;42.264;23.826;2023-05-08T07:26:52;94002.13;;;15.63;61.81
61870;BME280;47810;42.264;23.826;2023-05-08T07:29:17;94004.63;;;15.87;62.41
61870;BME280;47810;42.264;23.826;2023-05-08T07:31:44;94004.56;;;15.98;60.06
61870;BME280;47810;42.264;23.826;2023-05-08T07:34:11;94003.00;;;16.17;61.10
61870;BME280;47810;42.264;23.826;2023-05-08T07:36:36;93996.59;;;16.50;59.92
61870;BME280;47810;42.264;23.826;2023-05-08T07:39:02;93999.47;;;16.58;58.18
61870;BME280;47810;42.264;23.826;2023-05-08T07:41:28;94000.66;;;16.44;59.34
61870;BME280;47810;42.264;23.826;2023-05-08T07:43:54;94003.22;;;16.25;60.49
61870;BME280;47810;42.264;23.826;2023-05-08T07:46:19;94000.81;;;16.52;59.17
61870;BME280;47810;42.264;23.826;2023-05-08T07:48:46;93997.06;;;16.76;59.06
61870;BME280;47810;42.264;23.826;2023-05-08T07:51:11;93987.34;;;17.06;58.19
61870;BME280;47810;42.264;23.826;2023-05-08T07:53:37;93994.66;;;17.23;56.18
61870;BME280;47810;42.264;23.826;2023-05-08T07:56:03;93986.53;;;17.15;56.18
61870;BME280;47810;42.264;23.826;2023-05-08T07:58:28;93980.41;;;17.43;55.90
61870;BME280;47810;42.264;23.826;2023-05-08T08:00:54;93977.03;;;17.70;56.04
61870;BME280;47810;42.264;23.826;2023-05-08T08:03:19;93981.56;;;17.89;55.62
61870;BME280;47810;42.264;23.826;2023-05-08T08:05:45;93983.78;;;18.04;54.99
61870;BME280;47810;42.264;23.826;2023-05-08T08:08:10;93977.88;;;18.10;55.85
61870;BME280;47810;42.264;23.826;2023-05-08T08:10:36;93979.41;;;18.22;55.24
61870;BME280;47810;42.264;23.826;2023-05-08T08:13:01;93977.03;;;18.19;54.07
61870;BME280;47810;42.264;23.826;2023-05-08T08:15:27;93979.84;;;18.27;54.83
61870;BME280;47810;42.264;23.826;2023-05-08T08:17:53;93971.66;;;18.38;53.99
61870;BME280;47810;42.264;23.826;2023-05-08T08:20:19;93981.91;;;18.53;49.68
61870;BME280;47810;42.264;23.826;2023-05-08T08:22:44;93979.59;;;18.11;50.61
61870;BME280;47810;42.264;23.826;2023-05-08T08:25:10;93980.97;;;17.66;52.13
61870;BME280;47810;42.264;23.826;2023-05-08T08:27:36;93977.91;;;17.90;54.12
61870;BME280;47810;42.264;23.826;2023-05-08T08:30:02;93975.06;;;18.21;51.69
61870;BME280;47810;42.264;23.826;2023-05-08T08:32:27;93970.22;;;18.44;50.35
61870;BME280;47810;42.264;23.826;2023-05-08T08:34:53;93964.63;;;18.37;53.11
61870;BME280;47810;42.264;23.826;2023-05-08T08:37:18;93958.94;;;18.60;53.24
61870;BME280;47810;42.264;23.826;2023-05-08T08:39:44;93954.44;;;18.98;52.14
61870;BME280;47810;42.264;23.826;2023-05-08T08:42:09;93956.72;;;19.20;51.17
61870;BME280;47810;42.264;23.826;2023-05-08T08:44:36;93956.06;;;19.36;50.69
61870;BME280;47810;42.264;23.826;2023-05-08T08:47:01;93955.41;;;19.70;50.47
61870;BME280;47810;42.264;23.826;2023-05-08T08:49:29;93950.28;;;19.94;51.93
61870;BME280;47810;42.264;23.826;2023-05-08T08:52:01;93947.63;;;20.64;49.38
61870;BME280;47810;42.264;23.826;2023-05-08T08:54:28;93950.13;;;20.92;47.38
61870;BME280;47810;42.264;23.826;2023-05-08T08:56:54;93942.44;;;21.05;49.82
61870;BME280;47810;42.264;23.826;2023-05-08T08:59:21;93939.81;;;20.79;47.72
61870;BME280;47810;42.264;23.826;2023-05-08T09:01:49;93937.44;;;21.10;48.94
61870;BME280;47810;42.264;23.826;2023-05-08T09:04:17;93941.47;;;21.57;48.35
61870;BME280;47810;42.264;23.826;2023-05-08T09:06:43;93935.00;;;20.57;46.45
61870;BME280;47810;42.264;23.826;2023-05-08T09:09:11;93931.38;;;21.43;45.82
61870;BME280;47810;42.264;23.826;2023-05-08T09:11:38;93917.53;;;22.21;45.01
61870;BME280;47810;42.264;23.826;2023-05-08T09:14:04;93921.38;;;22.51;42.91
61870;BME280;47810;42.264;23.826;2023-05-08T09:16:30;93917.41;;;22.94;44.44
61870;BME280;47810;42.264;23.826;2023-05-08T09:18:55;93911.53;;;23.30;43.63
61870;BME280;47810;42.264;23.826;2023-05-08T09:21:21;93914.34;;;23.76;43.28
61870;BME280;47810;42.264;23.826;2023-05-08T09:26:39;93905.28;;;23.92;40.37
61870;BME280;47810;42.264;23.826;2023-05-08T09:29:08;93904.69;;;24.43;41.80
61870;BME280;47810;42.264;23.826;2023-05-08T09:31:35;93907.91;;;24.61;40.30
61870;BME280;47810;42.264;23.826;2023-05-08T09:34:00;93904.19;;;23.78;40.74
61870;BME280;47810;42.264;23.826;2023-05-08T09:36:26;93912.22;;;23.86;41.38
61870;BME280;47810;42.264;23.826;2023-05-08T09:38:56;93900.53;;;23.71;41.42
61870;BME280;47810;42.264;23.826;2023-05-08T09:41:21;93907.38;;;23.51;42.51
61870;BME280;47810;42.264;23.826;2023-05-08T09:44:04;93894.34;;;23.00;41.25
61870;BME280;47810;42.264;23.826;2023-05-08T09:46:31;93901.88;;;23.05;42.42
61870;BME280;47810;42.264;23.826;2023-05-08T09:48:59;93900.16;;;22.64;43.65
61870;BME280;47810;42.264;23.826;2023-05-08T09:51:25;93905.47;;;22.81;43.74
61870;BME280;47810;42.264;23.826;2023-05-08T09:53:54;93907.34;;;22.80;43.25
61870;BME280;47810;42.264;23.826;2023-05-08T09:56:36;93905.03;;;21.62;44.05
61870;BME280;47810;42.264;23.826;2023-05-08T09:59:24;93908.78;;;21.19;47.67
61870;BME280;47810;42.264;23.826;2023-05-08T10:01:49;93908.16;;;20.31;48.60
61870;BME280;47810;42.264;23.826;2023-05-08T10:04:15;93912.47;;;20.50;50.17
61870;BME280;47810;42.264;23.826;2023-05-08T10:06:40;93926.13;;;20.12;52.10
61870;BME280;47810;42.264;23.826;2023-05-08T10:11:31;93930.25;;;19.17;63.43
61870;BME280;47810;42.264;23.826;2023-05-08T10:13:57;93935.31;;;19.20;65.01
61870;BME280;47810;42.264;23.826;2023-05-08T10:16:23;93936.25;;;19.01;62.79
61870;BME280;47810;42.264;23.826;2023-05-08T10:18:50;93946.41;;;18.98;64.95
61870;BME280;47810;42.264;23.826;2023-05-08T10:21:21;93948.19;;;19.07;65.94
61870;BME280;47810;42.264;23.826;2023-05-08T10:23:48;93956.31;;;18.41;71.25
61870;BME280;47810;42.264;23.826;2023-05-08T10:26:18;93951.72;;;17.65;75.05
61870;BME280;47810;42.264;23.826;2023-05-08T10:28:52;93961.03;;;18.00;75.07
61870;BME280;47810;42.264;23.826;2023-05-08T10:31:19;93960.72;;;17.44;73.99
61870;BME280;47810;42.264;23.826;2023-05-08T10:33:46;93962.09;;;17.19;77.66
61870;BME280;47810;42.264;23.826;2023-05-08T10:36:15;93948.53;;;16.82;78.00
61870;BME280;47810;42.264;23.826;2023-05-08T10:38:41;93959.03;;;17.24;76.54
61870;BME280;47810;42.264;23.826;2023-05-08T10:41:07;93947.72;;;17.11;74.90
61870;BME280;47810;42.264;23.826;2023-05-08T10:43:34;93942.47;;;17.50;76.07
61870;BME280;47810;42.264;23.826;2023-05-08T10:46:01;93941.63;;;17.78;74.64
61870;BME280;47810;42.264;23.826;2023-05-08T10:51:02;93936.25;;;17.39;74.48
61870;BME280;47810;42.264;23.826;2023-05-08T10:53:35;93924.47;;;17.52;74.37
61870;BME280;47810;42.264;23.826;2023-05-08T10:56:03;93925.31;;;17.62;72.84
61870;BME280;47810;42.264;23.826;2023-05-08T10:58:29;93919.41;;;17.97;72.69
61870;BME280;47810;42.264;23.826;2023-05-08T11:03:24;93909.28;;;18.48;73.20
61870;BME280;47810;42.264;23.826;2023-05-08T11:05:50;93908.75;;;18.81;72.24
61870;BME280;47810;42.264;23.826;2023-05-08T11:08:17;93914.06;;;18.91;72.23
61870;BME280;47810;42.264;23.826;2023-05-08T11:10:43;93899.63;;;19.02;70.94
61870;BME280;47810;42.264;23.826;2023-05-08T11:13:10;93895.06;;;19.48;70.95
61870;BME280;47810;42.264;23.826;2023-05-08T11:15:37;93886.00;;;20.02;64.75
61870;BME280;47810;42.264;23.826;2023-05-08T11:18:04;93872.66;;;20.63;64.27
61870;BME280;47810;42.264;23.826;2023-05-08T11:20:40;93864.47;;;21.31;58.72
61870;BME280;47810;42.264;23.826;2023-05-08T11:23:27;93872.78;;;21.95;59.13
61870;BME280;47810;42.264;23.826;2023-05-08T11:26:06;93869.09;;;22.29;53.37
61870;BME280;47810;42.264;23.826;2023-05-08T11:28:37;93860.72;;;22.79;54.35
61870;BME280;47810;42.264;23.826;2023-05-08T11:31:03;93862.28;;;23.13;55.88
61870;BME280;47810;42.264;23.826;2023-05-08T11:33:32;93859.44;;;23.15;51.79
61870;BME280;47810;42.264;23.826;2023-05-08T11:36:11;93858.28;;;23.40;56.26
61870;BME280;47810;42.264;23.826;2023-05-08T11:38:37;93858.09;;;23.65;51.07
61870;BME280;47810;42.264;23.826;2023-05-08T11:41:06;93850.88;;;23.88;50.49
61870;BME280;47810;42.264;23.826;2023-05-08T11:46:10;93845.91;;;24.15;49.76
61870;BME280;47810;42.264;23.826;2023-05-08T11:48:38;93843.13;;;24.23;51.00
61870;BME280;47810;42.264;23.826;2023-05-08T11:51:04;93834.97;;;24.31;50.28
61870;BME280;47810;42.264;23.826;2023-05-08T11:53:29;93824.13;;;24.69;47.38
61870;BME280;47810;42.264;23.826;2023-05-08T11:55:55;93824.31;;;24.82;49.23
61870;BME280;47810;42.264;23.826;2023-05-08T11:58:21;93823.44;;;24.97;45.89
61870;BME280;47810;42.264;23.826;2023-05-08T12:00:47;93829.28;;;25.00;48.58
61870;BME280;47810;42.264;23.826;2023-05-08T12:03:16;93822.25;;;25.14;47.84
61870;BME280;47810;42.264;23.826;2023-05-08T12:05:42;93817.84;;;25.13;44.83
61870;BME280;47810;42.264;23.826;2023-05-08T12:08:09;93820.06;;;25.24;46.87
61870;BME280;47810;42.264;23.826;2023-05-08T12:10:39;93810.75;;;25.27;42.29
61870;BME280;47810;42.264;23.826;2023-05-08T12:13:14;93814.03;;;25.44;42.81
61870;BME280;47810;42.264;23.826;2023-05-08T12:15:40;93807.59;;;25.45;41.33
61870;BME280;47810;42.264;23.826;2023-05-08T12:18:06;93805.19;;;25.14;41.70
61870;BME280;47810;42.264;23.826;2023-05-08T12:20:32;93792.88;;;25.11;44.84
61870;BME280;47810;42.264;23.826;2023-05-08T12:22:57;93800.75;;;24.76;46.46
61870;BME280;47810;42.264;23.826;2023-05-08T12:25:24;93795.28;;;25.06;42.69
61870;BME280;47810;42.264;23.826;2023-05-08T12:27:50;93797.16;;;24.91;42.85
61870;BME280;47810;42.264;23.826;2023-05-08T12:30:15;93786.66;;;24.96;40.63
61870;BME280;47810;42.264;23.826;2023-05-08T12:32:41;93791.22;;;24.95;40.65
61870;BME280;47810;42.264;23.826;2023-05-08T12:35:10;93792.19;;;24.58;42.74
61870;BME280;47810;42.264;23.826;2023-05-08T12:37:36;93788.63;;;24.43;42.55
61870;BME280;47810;42.264;23.826;2023-05-08T12:40:02;93776.97;;;24.86;46.11
61870;BME280;47810;42.264;23.826;2023-05-08T12:42:43;93771.88;;;25.28;45.61
61870;BME280;47810;42.264;23.826;2023-05-08T12:48:05;93768.91;;;26.15;49.24
61870;BME280;47810;42.264;23.826;2023-05-08T12:50:35;93765.06;;;26.59;44.41
61870;BME280;47810;42.264;23.826;2023-05-08T12:53:01;93768.66;;;26.66;40.39
61870;BME280;47810;42.264;23.826;2023-05-08T12:55:28;93754.91;;;26.05;40.84
61870;BME280;47810;42.264;23.826;2023-05-08T13:00:33;93753.91;;;25.63;42.70
61870;BME280;47810;42.264;23.826;2023-05-08T13:02:59;93745.88;;;25.27;43.69
61870;BME280;47810;42.264;23.826;2023-05-08T13:05:24;93738.91;;;25.61;43.96
61870;BME280;47810;42.264;23.826;2023-05-08T13:07:50;93736.06;;;26.18;42.04
61870;BME280;47810;42.264;23.826;2023-05-08T13:10:16;93728.44;;;26.35;40.46
61870;BME280;47810;42.264;23.826;2023-05-08T13:12:44;93731.81;;;26.72;43.69
61870;BME280;47810;42.264;23.826;2023-05-08T13:15:10;93723.84;;;26.70;41.60
61870;BME280;47810;42.264;23.826;2023-05-08T13:17:36;93711.44;;;26.96;39.50
61870;BME280;47810;42.264;23.826;2023-05-08T13:20:01;93718.28;;;26.79;37.56
61870;BME280;47810;42.264;23.826;2023-05-08T13:22:28;93709.69;;;26.68;39.85
61870;BME280;47810;42.264;23.826;2023-05-08T13:24:57;93702.50;;;26.95;38.69
61870;BME280;47810;42.264;23.826;2023-05-08T13:27:23;93700.91;;;27.14;40.18